sensor_id;sensor_type;location;lat;lon;timestamp;temperature;humidity
9219;DHT22;4644;48.858;9.184;2023-03-19T00:00:01;9.50;99.90
9219;DHT22;4644;48.858;9.184;2023-03-19T00:02:29;9.40;99.90
9219;DHT22;4644;48.858;9.184;2023-03-19T00:04:57;9.40;99.90
9219;DHT22;4644;48.858;9.184;2023-03-19T00:07:24;9.40;99.90
9219;DHT22;4644;48.858;9.184;2023-03-19T00:09:50;9.40;99.90
9219;DHT22;4644;48.858;9.184;2023-03-19T00:12:17;9.40;99.90
9219;DHT22;4644;48.858;9.184;2023-03-19T00:14:46;9.40;99.90
9219;DHT22;4644;48.858;9.184;2023-03-19T00:17:13;9.40;99.90
9219;DHT22;4644;48.858;9.184;2023-03-19T00:19:40;9.30;99.90
9219;DHT22;4644;48.858;9.184;2023-03-19T00:22:07;9.30;99.90
9219;DHT22;4644;48.858;9.184;2023-03-19T00:24:34;9.30;99.90
9219;DHT22;4644;48.858;9.184;2023-03-19T00:27:01;9.30;99.90
9219;DHT22;4644;48.858;9.184;2023-03-19T00:29:29;9.30;99.90
9219;DHT22;4644;48.858;9.184;2023-03-19T00:31:57;9.40;99.90
9219;DHT22;4644;48.858;9.184;2023-03-19T00:34:24;9.40;99.90
9219;DHT22;4644;48.858;9.184;2023-03-19T00:36:51;9.50;99.90
9219;DHT22;4644;48.858;9.184;2023-03-19T00:39:18;9.40;99.90
9219;DHT22;4644;48.858;9.184;2023-03-19T00:41:46;9.40;99.90
9219;DHT22;4644;48.858;9.184;2023-03-19T00:44:15;9.50;99.90
9219;DHT22;4644;48.858;9.184;2023-03-19T00:46:44;9.50;99.90
9219;DHT22;4644;48.858;9.184;2023-03-19T00:49:12;9.50;99.90
9219;DHT22;4644;48.858;9.184;2023-03-19T00:51:39;9.50;99.90
9219;DHT22;4644;48.858;9.184;2023-03-19T00:54:09;9.50;99.90
9219;DHT22;4644;48.858;9.184;2023-03-19T00:56:37;9.50;99.90
9219;DHT22;4644;48.858;9.184;2023-03-19T00:59:04;9.50;99.90
9219;DHT22;4644;48.858;9.184;2023-03-19T01:01:31;9.50;99.90
9219;DHT22;4644;48.858;9.184;2023-03-19T01:03:58;9.50;99.90
9219;DHT22;4644;48.858;9.184;2023-03-19T01:06:26;9.50;99.90
9219;DHT22;4644;48.858;9.184;2023-03-19T01:08:53;9.50;99.90
9219;DHT22;4644;48.858;9.184;2023-03-19T01:11:20;9.60;99.90
9219;DHT22;4644;48.858;9.184;2023-03-19T01:13:47;9.60;99.90
9219;DHT22;4644;48.858;9.184;2023-03-19T01:16:14;9.70;99.90
9219;DHT22;4644;48.858;9.184;2023-03-19T01:18:41;9.70;99.90
9219;DHT22;4644;48.858;9.184;2023-03-19T01:21:08;9.70;99.90
9219;DHT22;4644;48.858;9.184;2023-03-19T01:23:37;9.80;99.90
9219;DHT22;4644;48.858;9.184;2023-03-19T01:26:04;9.80;99.90
9219;DHT22;4644;48.858;9.184;2023-03-19T01:28:31;9.70;99.90
9219;DHT22;4644;48.858;9.184;2023-03-19T01:30:59;9.70;99.90
9219;DHT22;4644;48.858;9.184;2023-03-19T01:33:26;9.70;99.90
9219;DHT22;4644;48.858;9.184;2023-03-19T01:35:54;9.80;99.90
9219;DHT22;4644;48.858;9.184;2023-03-19T01:38:22;9.80;99.90
9219;DHT22;4644;48.858;9.184;2023-03-19T01:40:51;9.80;99.90
9219;DHT22;4644;48.858;9.184;2023-03-19T01:43:20;9.80;99.90
9219;DHT22;4644;48.858;9.184;2023-03-19T01:45:49;9.90;99.90
9219;DHT22;4644;48.858;9.184;2023-03-19T01:48:24;9.90;99.90
9219;DHT22;4644;48.858;9.184;2023-03-19T01:50:53;9.90;99.90
9219;DHT22;4644;48.858;9.184;2023-03-19T01:53:23;9.90;99.90
9219;DHT22;4644;48.858;9.184;2023-03-19T01:55:57;9.90;99.90
9219;DHT22;4644;48.858;9.184;2023-03-19T01:58:25;10.00;99.90
9219;DHT22;4644;48.858;9.184;2023-03-19T02:00:53;10.00;99.90
9219;DHT22;4644;48.858;9.184;2023-03-19T02:03:21;10.00;99.90
9219;DHT22;4644;48.858;9.184;2023-03-19T02:05:51;10.00;99.90
9219;DHT22;4644;48.858;9.184;2023-03-19T02:08:20;10.00;99.90
9219;DHT22;4644;48.858;9.184;2023-03-19T02:10:48;10.10;99.90
9219;DHT22;4644;48.858;9.184;2023-03-19T02:13:17;10.30;99.90
9219;DHT22;4644;48.858;9.184;2023-03-19T02:15:44;10.40;99.90
9219;DHT22;4644;48.858;9.184;2023-03-19T02:18:11;10.50;99.90
9219;DHT22;4644;48.858;9.184;2023-03-19T02:20:44;10.60;99.90
9219;DHT22;4644;48.858;9.184;2023-03-19T02:23:19;10.60;99.90
9219;DHT22;4644;48.858;9.184;2023-03-19T02:26:00;10.70;99.90
9219;DHT22;4644;48.858;9.184;2023-03-19T02:28:29;10.70;99.90
9219;DHT22;4644;48.858;9.184;2023-03-19T02:30:57;10.80;99.90
9219;DHT22;4644;48.858;9.184;2023-03-19T02:33:24;10.80;99.90
9219;DHT22;4644;48.858;9.184;2023-03-19T02:35:52;10.70;99.90
9219;DHT22;4644;48.858;9.184;2023-03-19T02:38:20;10.50;99.90
9219;DHT22;4644;48.858;9.184;2023-03-19T02:40:50;10.30;99.90
9219;DHT22;4644;48.858;9.184;2023-03-19T02:43:21;10.10;99.90
9219;DHT22;4644;48.858;9.184;2023-03-19T02:45:48;9.90;99.90
9219;DHT22;4644;48.858;9.184;2023-03-19T02:48:16;9.70;99.90
9219;DHT22;4644;48.858;9.184;2023-03-19T02:50:43;9.60;99.90
9219;DHT22;4644;48.858;9.184;2023-03-19T02:53:10;9.50;99.90
9219;DHT22;4644;48.858;9.184;2023-03-19T02:55:37;9.50;99.90
9219;DHT22;4644;48.858;9.184;2023-03-19T02:58:05;9.40;99.90
9219;DHT22;4644;48.858;9.184;2023-03-19T03:00:34;9.40;99.90
9219;DHT22;4644;48.858;9.184;2023-03-19T03:03:02;9.40;99.90
9219;DHT22;4644;48.858;9.184;2023-03-19T03:05:31;9.40;99.90
9219;DHT22;4644;48.858;9.184;2023-03-19T03:07:58;9.30;99.90
9219;DHT22;4644;48.858;9.184;2023-03-19T03:10:25;9.40;99.90
9219;DHT22;4644;48.858;9.184;2023-03-19T03:12:53;9.40;99.90
9219;DHT22;4644;48.858;9.184;2023-03-19T03:15:20;9.40;99.90
9219;DHT22;4644;48.858;9.184;2023-03-19T03:17:49;9.40;99.90
9219;DHT22;4644;48.858;9.184;2023-03-19T03:20:16;9.40;99.90
9219;DHT22;4644;48.858;9.184;2023-03-19T03:22:45;9.40;99.90
9219;DHT22;4644;48.858;9.184;2023-03-19T03:25:13;9.40;99.90
9219;DHT22;4644;48.858;9.184;2023-03-19T03:27:40;9.50;99.90
9219;DHT22;4644;48.858;9.184;2023-03-19T03:30:08;9.50;99.90
9219;DHT22;4644;48.858;9.184;2023-03-19T03:32:36;9.50;99.90
9219;DHT22;4644;48.858;9.184;2023-03-19T03:35:06;9.40;99.90
9219;DHT22;4644;48.858;9.184;2023-03-19T03:37:35;9.40;99.90
9219;DHT22;4644;48.858;9.184;2023-03-19T03:40:03;9.40;99.90
9219;DHT22;4644;48.858;9.184;2023-03-19T03:42:33;9.40;99.90
9219;DHT22;4644;48.858;9.184;2023-03-19T03:45:00;9.30;99.90
9219;DHT22;4644;48.858;9.184;2023-03-19T03:47:27;9.20;99.90
9219;DHT22;4644;48.858;9.184;2023-03-19T03:49:55;9.30;99.90
9219;DHT22;4644;48.858;9.184;2023-03-19T03:52:23;9.20;99.90
9219;DHT22;4644;48.858;9.184;2023-03-19T03:54:50;9.20;99.90
9219;DHT22;4644;48.858;9.184;2023-03-19T03:57:17;9.20;99.90
9219;DHT22;4644;48.858;9.184;2023-03-19T03:59:44;9.20;99.90
9219;DHT22;4644;48.858;9.184;2023-03-19T04:02:11;9.20;99.90
9219;DHT22;4644;48.858;9.184;2023-03-19T04:04:38;9.20;99.90
9219;DHT22;4644;48.858;9.184;2023-03-19T04:07:06;9.20;99.90
9219;DHT22;4644;48.858;9.184;2023-03-19T04:09:34;9.20;99.90
9219;DHT22;4644;48.858;9.184;2023-03-19T04:12:02;9.20;99.90
9219;DHT22;4644;48.858;9.184;2023-03-19T04:14:29;9.10;99.90
9219;DHT22;4644;48.858;9.184;2023-03-19T04:16:56;9.10;99.90
9219;DHT22;4644;48.858;9.184;2023-03-19T04:19:23;9.10;99.90
9219;DHT22;4644;48.858;9.184;2023-03-19T04:21:50;9.10;99.90
9219;DHT22;4644;48.858;9.184;2023-03-19T04:24:17;9.00;99.90
9219;DHT22;4644;48.858;9.184;2023-03-19T04:26:45;9.10;99.90
9219;DHT22;4644;48.858;9.184;2023-03-19T04:29:14;9.00;99.90
9219;DHT22;4644;48.858;9.184;2023-03-19T04:31:41;9.00;99.90
9219;DHT22;4644;48.858;9.184;2023-03-19T04:34:08;9.00;99.90
9219;DHT22;4644;48.858;9.184;2023-03-19T04:36:35;9.00;99.90
9219;DHT22;4644;48.858;9.184;2023-03-19T04:39:03;9.00;99.90
9219;DHT22;4644;48.858;9.184;2023-03-19T04:41:31;9.00;99.90
9219;DHT22;4644;48.858;9.184;2023-03-19T04:44:00;9.00;99.90
9219;DHT22;4644;48.858;9.184;2023-03-19T04:46:27;8.90;99.90
9219;DHT22;4644;48.858;9.184;2023-03-19T04:48:54;8.90;99.90
9219;DHT22;4644;48.858;9.184;2023-03-19T04:51:21;8.90;99.90
9219;DHT22;4644;48.858;9.184;2023-03-19T04:53:48;9.00;99.90
9219;DHT22;4644;48.858;9.184;2023-03-19T04:56:15;9.00;99.90
9219;DHT22;4644;48.858;9.184;2023-03-19T04:58:42;9.00;99.90
9219;DHT22;4644;48.858;9.184;2023-03-19T05:01:11;9.00;99.90
9219;DHT22;4644;48.858;9.184;2023-03-19T05:03:38;8.90;99.90
9219;DHT22;4644;48.858;9.184;2023-03-19T05:06:05;8.90;99.90
9219;DHT22;4644;48.858;9.184;2023-03-19T05:08:32;8.90;99.90
9219;DHT22;4644;48.858;9.184;2023-03-19T05:10:59;8.90;99.90
9219;DHT22;4644;48.858;9.184;2023-03-19T05:13:26;8.90;99.90
9219;DHT22;4644;48.858;9.184;2023-03-19T05:15:54;8.90;99.90
9219;DHT22;4644;48.858;9.184;2023-03-19T05:18:22;8.90;99.90
9219;DHT22;4644;48.858;9.184;2023-03-19T05:20:50;8.90;99.90
9219;DHT22;4644;48.858;9.184;2023-03-19T05:23:18;8.90;99.90
9219;DHT22;4644;48.858;9.184;2023-03-19T05:25:45;8.90;99.90
9219;DHT22;4644;48.858;9.184;2023-03-19T05:28:12;8.80;99.90
9219;DHT22;4644;48.858;9.184;2023-03-19T05:30:39;8.80;99.90
9219;DHT22;4644;48.858;9.184;2023-03-19T05:33:07;8.80;99.90
9219;DHT22;4644;48.858;9.184;2023-03-19T05:35:36;8.80;99.90
9219;DHT22;4644;48.858;9.184;2023-03-19T05:38:03;8.80;99.90
9219;DHT22;4644;48.858;9.184;2023-03-19T05:40:31;8.80;99.90
9219;DHT22;4644;48.858;9.184;2023-03-19T05:42:59;8.80;99.90
9219;DHT22;4644;48.858;9.184;2023-03-19T05:45:26;8.70;99.90
9219;DHT22;4644;48.858;9.184;2023-03-19T05:47:53;8.80;99.90
9219;DHT22;4644;48.858;9.184;2023-03-19T05:50:20;8.70;99.90
9219;DHT22;4644;48.858;9.184;2023-03-19T05:52:49;8.70;99.90
9219;DHT22;4644;48.858;9.184;2023-03-19T05:55:16;8.80;99.90
9219;DHT22;4644;48.858;9.184;2023-03-19T05:57:43;8.80;99.90
9219;DHT22;4644;48.858;9.184;2023-03-19T06:00:11;8.80;99.90
9219;DHT22;4644;48.858;9.184;2023-03-19T06:02:38;8.80;99.90
9219;DHT22;4644;48.858;9.184;2023-03-19T06:05:06;8.80;99.90
9219;DHT22;4644;48.858;9.184;2023-03-19T06:07:33;8.90;99.90
9219;DHT22;4644;48.858;9.184;2023-03-19T06:10:03;8.90;99.90
9219;DHT22;4644;48.858;9.184;2023-03-19T06:12:31;8.90;99.90
9219;DHT22;4644;48.858;9.184;2023-03-19T06:14:58;9.00;99.90
9219;DHT22;4644;48.858;9.184;2023-03-19T06:17:25;9.00;99.90
9219;DHT22;4644;48.858;9.184;2023-03-19T06:19:52;9.10;99.90
9219;DHT22;4644;48.858;9.184;2023-03-19T06:22:19;9.10;99.90
9219;DHT22;4644;48.858;9.184;2023-03-19T06:24:46;9.10;99.90
9219;DHT22;4644;48.858;9.184;2023-03-19T06:27:15;9.10;99.90
9219;DHT22;4644;48.858;9.184;2023-03-19T06:29:41;9.10;99.90
9219;DHT22;4644;48.858;9.184;2023-03-19T06:32:09;9.20;99.90
9219;DHT22;4644;48.858;9.184;2023-03-19T06:34:36;9.20;99.90
9219;DHT22;4644;48.858;9.184;2023-03-19T06:37:03;9.20;99.90
9219;DHT22;4644;48.858;9.184;2023-03-19T06:39:30;9.20;99.90
9219;DHT22;4644;48.858;9.184;2023-03-19T06:41:57;9.30;99.90
9219;DHT22;4644;48.858;9.184;2023-03-19T06:44:26;9.30;99.90
9219;DHT22;4644;48.858;9.184;2023-03-19T06:46:53;9.40;99.90
9219;DHT22;4644;48.858;9.184;2023-03-19T06:49:21;9.40;99.90
9219;DHT22;4644;48.858;9.184;2023-03-19T06:51:47;9.40;99.90
9219;DHT22;4644;48.858;9.184;2023-03-19T06:54:14;9.40;99.90
9219;DHT22;4644;48.858;9.184;2023-03-19T06:56:41;9.40;99.90
9219;DHT22;4644;48.858;9.184;2023-03-19T06:59:09;9.50;99.90
9219;DHT22;4644;48.858;9.184;2023-03-19T07:01:39;9.60;99.90
9219;DHT22;4644;48.858;9.184;2023-03-19T07:04:06;9.60;99.90
9219;DHT22;4644;48.858;9.184;2023-03-19T07:06:33;9.60;99.90
9219;DHT22;4644;48.858;9.184;2023-03-19T07:09:01;9.70;99.90
9219;DHT22;4644;48.858;9.184;2023-03-19T07:11:28;9.70;99.90
9219;DHT22;4644;48.858;9.184;2023-03-19T07:13:56;9.80;99.90
9219;DHT22;4644;48.858;9.184;2023-03-19T07:16:23;9.90;99.90
9219;DHT22;4644;48.858;9.184;2023-03-19T07:18:51;9.90;99.90
9219;DHT22;4644;48.858;9.184;2023-03-19T07:21:18;10.00;99.90
9219;DHT22;4644;48.858;9.184;2023-03-19T07:23:45;9.90;99.90
9219;DHT22;4644;48.858;9.184;2023-03-19T07:26:12;10.00;99.90
9219;DHT22;4644;48.858;9.184;2023-03-19T07:28:39;10.00;99.90
9219;DHT22;4644;48.858;9.184;2023-03-19T07:31:06;10.10;99.90
9219;DHT22;4644;48.858;9.184;2023-03-19T07:33:33;10.10;99.90
9219;DHT22;4644;48.858;9.184;2023-03-19T07:36:02;10.20;99.90
9219;DHT22;4644;48.858;9.184;2023-03-19T07:38:29;10.20;99.90
9219;DHT22;4644;48.858;9.184;2023-03-19T07:40:56;10.20;99.90
9219;DHT22;4644;48.858;9.184;2023-03-19T07:43:23;10.30;99.90
9219;DHT22;4644;48.858;9.184;2023-03-19T07:45:50;10.40;99.90
9219;DHT22;4644;48.858;9.184;2023-03-19T07:48:17;10.50;99.90
9219;DHT22;4644;48.858;9.184;2023-03-19T07:50:44;10.50;99.90
9219;DHT22;4644;48.858;9.184;2023-03-19T07:53:12;10.50;99.90
9219;DHT22;4644;48.858;9.184;2023-03-19T07:55:39;10.60;99.90
9219;DHT22;4644;48.858;9.184;2023-03-19T07:58:07;10.60;99.90
9219;DHT22;4644;48.858;9.184;2023-03-19T08:00:34;10.70;99.90
9219;DHT22;4644;48.858;9.184;2023-03-19T08:03:00;10.70;99.90
9219;DHT22;4644;48.858;9.184;2023-03-19T08:05:27;10.80;99.90
9219;DHT22;4644;48.858;9.184;2023-03-19T08:07:55;10.90;99.90
9219;DHT22;4644;48.858;9.184;2023-03-19T08:10:23;10.90;99.90
9219;DHT22;4644;48.858;9.184;2023-03-19T08:12:50;11.00;99.90
9219;DHT22;4644;48.858;9.184;2023-03-19T08:15:17;11.00;99.90
9219;DHT22;4644;48.858;9.184;2023-03-19T08:17:44;11.10;99.90
9219;DHT22;4644;48.858;9.184;2023-03-19T08:20:13;11.10;99.90
9219;DHT22;4644;48.858;9.184;2023-03-19T08:22:41;11.10;99.90
9219;DHT22;4644;48.858;9.184;2023-03-19T08:25:09;11.10;99.90
9219;DHT22;4644;48.858;9.184;2023-03-19T08:27:37;11.20;99.90
9219;DHT22;4644;48.858;9.184;2023-03-19T08:30:07;11.20;99.90
9219;DHT22;4644;48.858;9.184;2023-03-19T08:32:35;11.30;99.90
9219;DHT22;4644;48.858;9.184;2023-03-19T08:35:03;11.30;99.90
9219;DHT22;4644;48.858;9.184;2023-03-19T08:37:30;11.40;99.90
9219;DHT22;4644;48.858;9.184;2023-03-19T08:39:58;11.30;99.90
9219;DHT22;4644;48.858;9.184;2023-03-19T08:42:25;11.40;99.90
9219;DHT22;4644;48.858;9.184;2023-03-19T08:44:54;11.40;99.90
9219;DHT22;4644;48.858;9.184;2023-03-19T08:47:22;11.50;99.90
9219;DHT22;4644;48.858;9.184;2023-03-19T08:49:49;11.60;99.90
9219;DHT22;4644;48.858;9.184;2023-03-19T08:52:17;11.60;99.90
9219;DHT22;4644;48.858;9.184;2023-03-19T08:54:44;11.70;99.90
9219;DHT22;4644;48.858;9.184;2023-03-19T08:57:11;11.80;99.90
9219;DHT22;4644;48.858;9.184;2023-03-19T08:59:38;11.90;99.90
9219;DHT22;4644;48.858;9.184;2023-03-19T09:02:09;12.10;99.90
9219;DHT22;4644;48.858;9.184;2023-03-19T09:04:39;12.30;99.90
9219;DHT22;4644;48.858;9.184;2023-03-19T09:07:06;12.70;99.90
9219;DHT22;4644;48.858;9.184;2023-03-19T09:09:33;12.90;99.90
9219;DHT22;4644;48.858;9.184;2023-03-19T09:12:00;12.90;99.90
9219;DHT22;4644;48.858;9.184;2023-03-19T09:14:27;13.10;99.90
9219;DHT22;4644;48.858;9.184;2023-03-19T09:16:54;13.50;99.90
9219;DHT22;4644;48.858;9.184;2023-03-19T09:19:22;14.00;99.90
9219;DHT22;4644;48.858;9.184;2023-03-19T09:21:49;14.30;99.90
9219;DHT22;4644;48.858;9.184;2023-03-19T09:24:17;14.70;99.90
9219;DHT22;4644;48.858;9.184;2023-03-19T09:26:44;14.90;99.90
9219;DHT22;4644;48.858;9.184;2023-03-19T09:29:12;15.40;99.90
9219;DHT22;4644;48.858;9.184;2023-03-19T09:31:39;15.50;99.90
9219;DHT22;4644;48.858;9.184;2023-03-19T09:34:06;15.40;99.90
9219;DHT22;4644;48.858;9.184;2023-03-19T09:36:35;15.20;99.90
9219;DHT22;4644;48.858;9.184;2023-03-19T09:39:02;15.10;99.90
9219;DHT22;4644;48.858;9.184;2023-03-19T09:41:34;15.10;99.90
9219;DHT22;4644;48.858;9.184;2023-03-19T09:44:11;15.30;99.90
9219;DHT22;4644;48.858;9.184;2023-03-19T09:46:43;15.30;99.90
9219;DHT22;4644;48.858;9.184;2023-03-19T09:49:20;15.30;99.90
9219;DHT22;4644;48.858;9.184;2023-03-19T09:51:51;15.30;99.90
9219;DHT22;4644;48.858;9.184;2023-03-19T09:54:26;15.70;99.90
9219;DHT22;4644;48.858;9.184;2023-03-19T09:56:54;15.80;99.90
9219;DHT22;4644;48.858;9.184;2023-03-19T09:59:23;16.00;99.90
9219;DHT22;4644;48.858;9.184;2023-03-19T10:01:57;16.20;99.90
9219;DHT22;4644;48.858;9.184;2023-03-19T10:04:47;16.40;99.90
9219;DHT22;4644;48.858;9.184;2023-03-19T10:07:30;16.50;99.90
9219;DHT22;4644;48.858;9.184;2023-03-19T10:10:14;16.70;99.90
9219;DHT22;4644;48.858;9.184;2023-03-19T10:12:52;16.60;99.90
9219;DHT22;4644;48.858;9.184;2023-03-19T10:15:27;16.90;99.90
9219;DHT22;4644;48.858;9.184;2023-03-19T10:17:59;17.00;99.90
9219;DHT22;4644;48.858;9.184;2023-03-19T10:20:46;17.00;99.90
9219;DHT22;4644;48.858;9.184;2023-03-19T10:23:36;17.10;99.90
9219;DHT22;4644;48.858;9.184;2023-03-19T10:26:09;17.00;99.90
9219;DHT22;4644;48.858;9.184;2023-03-19T10:28:40;17.10;99.90
9219;DHT22;4644;48.858;9.184;2023-03-19T10:31:18;17.20;99.90
9219;DHT22;4644;48.858;9.184;2023-03-19T10:33:52;17.40;99.90
9219;DHT22;4644;48.858;9.184;2023-03-19T10:36:26;17.50;99.90
9219;DHT22;4644;48.858;9.184;2023-03-19T10:38:57;17.50;99.90
9219;DHT22;4644;48.858;9.184;2023-03-19T10:41:33;17.80;99.90
9219;DHT22;4644;48.858;9.184;2023-03-19T10:44:06;17.90;99.90
9219;DHT22;4644;48.858;9.184;2023-03-19T10:46:37;18.20;99.90
9219;DHT22;4644;48.858;9.184;2023-03-19T10:49:04;18.30;99.90
9219;DHT22;4644;48.858;9.184;2023-03-19T10:51:36;18.20;99.40
9219;DHT22;4644;48.858;9.184;2023-03-19T10:54:17;18.00;98.30
9219;DHT22;4644;48.858;9.184;2023-03-19T10:56:46;18.20;96.30
9219;DHT22;4644;48.858;9.184;2023-03-19T10:59:21;18.30;98.20
9219;DHT22;4644;48.858;9.184;2023-03-19T11:01:56;18.10;97.40
9219;DHT22;4644;48.858;9.184;2023-03-19T11:04:24;18.10;96.20
9219;DHT22;4644;48.858;9.184;2023-03-19T11:06:54;18.10;97.70
9219;DHT22;4644;48.858;9.184;2023-03-19T11:09:29;18.20;93.70
9219;DHT22;4644;48.858;9.184;2023-03-19T11:12:05;18.20;94.30
9219;DHT22;4644;48.858;9.184;2023-03-19T11:14:35;18.40;96.40
9219;DHT22;4644;48.858;9.184;2023-03-19T11:17:05;18.60;96.00
9219;DHT22;4644;48.858;9.184;2023-03-19T11:19:48;18.60;90.20
9219;DHT22;4644;48.858;9.184;2023-03-19T11:22:20;19.00;91.20
9219;DHT22;4644;48.858;9.184;2023-03-19T11:24:51;18.60;88.20
9219;DHT22;4644;48.858;9.184;2023-03-19T11:27:26;18.50;88.90
9219;DHT22;4644;48.858;9.184;2023-03-19T11:29:54;18.50;87.50
9219;DHT22;4644;48.858;9.184;2023-03-19T11:32:54;18.30;86.90
9219;DHT22;4644;48.858;9.184;2023-03-19T11:35:25;18.20;86.00
9219;DHT22;4644;48.858;9.184;2023-03-19T11:37:56;18.20;86.50
9219;DHT22;4644;48.858;9.184;2023-03-19T11:40:35;18.30;90.40
9219;DHT22;4644;48.858;9.184;2023-03-19T11:43:25;18.20;90.80
9219;DHT22;4644;48.858;9.184;2023-03-19T11:45:59;18.40;90.30
9219;DHT22;4644;48.858;9.184;2023-03-19T11:48:37;18.50;88.70
9219;DHT22;4644;48.858;9.184;2023-03-19T11:51:12;19.10;88.90
9219;DHT22;4644;48.858;9.184;2023-03-19T11:53:53;19.40;84.80
9219;DHT22;4644;48.858;9.184;2023-03-19T11:56:30;19.50;84.80
9219;DHT22;4644;48.858;9.184;2023-03-19T11:59:15;19.40;83.10
9219;DHT22;4644;48.858;9.184;2023-03-19T12:05:11;18.80;84.30
9219;DHT22;4644;48.858;9.184;2023-03-19T12:07:46;18.50;83.00
9219;DHT22;4644;48.858;9.184;2023-03-19T12:10:27;18.40;87.20
9219;DHT22;4644;48.858;9.184;2023-03-19T12:13:05;18.30;83.10
9219;DHT22;4644;48.858;9.184;2023-03-19T12:15:38;18.30;84.10
9219;DHT22;4644;48.858;9.184;2023-03-19T12:18:15;18.40;83.60
9219;DHT22;4644;48.858;9.184;2023-03-19T12:20:51;18.50;85.00
9219;DHT22;4644;48.858;9.184;2023-03-19T12:23:31;18.60;82.90
9219;DHT22;4644;48.858;9.184;2023-03-19T12:26:05;18.70;81.60
9219;DHT22;4644;48.858;9.184;2023-03-19T12:28:38;18.80;82.50
9219;DHT22;4644;48.858;9.184;2023-03-19T12:31:33;18.70;83.70
9219;DHT22;4644;48.858;9.184;2023-03-19T12:34:15;18.40;83.00
9219;DHT22;4644;48.858;9.184;2023-03-19T12:36:51;18.20;83.00
9219;DHT22;4644;48.858;9.184;2023-03-19T12:39:25;18.20;84.00
9219;DHT22;4644;48.858;9.184;2023-03-19T12:41:53;18.30;88.50
9219;DHT22;4644;48.858;9.184;2023-03-19T12:44:29;18.40;86.20
9219;DHT22;4644;48.858;9.184;2023-03-19T12:47:01;18.20;85.50
9219;DHT22;4644;48.858;9.184;2023-03-19T12:49:32;17.80;90.10
9219;DHT22;4644;48.858;9.184;2023-03-19T12:52:07;17.30;91.80
9219;DHT22;4644;48.858;9.184;2023-03-19T12:54:39;16.80;92.50
9219;DHT22;4644;48.858;9.184;2023-03-19T12:57:11;16.40;94.10
9219;DHT22;4644;48.858;9.184;2023-03-19T12:59:47;16.00;94.60
9219;DHT22;4644;48.858;9.184;2023-03-19T13:02:21;15.70;95.70
9219;DHT22;4644;48.858;9.184;2023-03-19T13:04:53;15.40;96.40
9219;DHT22;4644;48.858;9.184;2023-03-19T13:07:27;15.30;96.90
9219;DHT22;4644;48.858;9.184;2023-03-19T13:10:00;15.20;97.00
9219;DHT22;4644;48.858;9.184;2023-03-19T13:12:31;15.00;98.40
9219;DHT22;4644;48.858;9.184;2023-03-19T13:15:06;14.80;99.90
9219;DHT22;4644;48.858;9.184;2023-03-19T13:17:40;14.50;99.90
9219;DHT22;4644;48.858;9.184;2023-03-19T13:20:19;14.20;99.90
9219;DHT22;4644;48.858;9.184;2023-03-19T13:22:53;14.10;99.90
9219;DHT22;4644;48.858;9.184;2023-03-19T13:25:24;13.80;99.90
9219;DHT22;4644;48.858;9.184;2023-03-19T13:27:53;13.60;99.90
9219;DHT22;4644;48.858;9.184;2023-03-19T13:30:23;13.30;99.90
9219;DHT22;4644;48.858;9.184;2023-03-19T13:32:59;12.90;99.90
9219;DHT22;4644;48.858;9.184;2023-03-19T13:35:34;12.60;99.90
9219;DHT22;4644;48.858;9.184;2023-03-19T13:38:10;12.40;99.90
9219;DHT22;4644;48.858;9.184;2023-03-19T13:40:43;12.20;99.90
9219;DHT22;4644;48.858;9.184;2023-03-19T13:43:41;12.20;99.90
9219;DHT22;4644;48.858;9.184;2023-03-19T13:46:39;12.30;99.90
9219;DHT22;4644;48.858;9.184;2023-03-19T13:49:28;12.40;99.90
9219;DHT22;4644;48.858;9.184;2023-03-19T13:51:58;12.50;99.90
9219;DHT22;4644;48.858;9.184;2023-03-19T13:54:37;12.60;99.90
9219;DHT22;4644;48.858;9.184;2023-03-19T13:57:20;12.80;99.90
9219;DHT22;4644;48.858;9.184;2023-03-19T13:59:49;13.10;99.90
9219;DHT22;4644;48.858;9.184;2023-03-19T14:02:47;13.20;99.90
9219;DHT22;4644;48.858;9.184;2023-03-19T14:05:17;13.30;99.90
9219;DHT22;4644;48.858;9.184;2023-03-19T14:07:50;13.40;99.90
9219;DHT22;4644;48.858;9.184;2023-03-19T14:10:21;13.40;99.90
9219;DHT22;4644;48.858;9.184;2023-03-19T14:12:51;13.40;99.90
9219;DHT22;4644;48.858;9.184;2023-03-19T14:15:27;13.50;99.90
9219;DHT22;4644;48.858;9.184;2023-03-19T14:18:01;13.50;99.90
9219;DHT22;4644;48.858;9.184;2023-03-19T14:20:42;13.60;99.90
9219;DHT22;4644;48.858;9.184;2023-03-19T14:23:18;13.60;99.90
9219;DHT22;4644;48.858;9.184;2023-03-19T14:26:15;13.60;99.90
9219;DHT22;4644;48.858;9.184;2023-03-19T14:28:54;13.70;99.90
9219;DHT22;4644;48.858;9.184;2023-03-19T14:31:27;13.80;99.90
9219;DHT22;4644;48.858;9.184;2023-03-19T14:34:01;14.00;99.90
9219;DHT22;4644;48.858;9.184;2023-03-19T14:36:30;14.20;99.90
9219;DHT22;4644;48.858;9.184;2023-03-19T14:38:59;14.40;99.90
9219;DHT22;4644;48.858;9.184;2023-03-19T14:41:31;14.60;99.90
9219;DHT22;4644;48.858;9.184;2023-03-19T14:53:03;14.30;99.90
9219;DHT22;4644;48.858;9.184;2023-03-19T14:55:35;14.30;99.90
9219;DHT22;4644;48.858;9.184;2023-03-19T14:58:03;14.30;99.90
9219;DHT22;4644;48.858;9.184;2023-03-19T15:00:39;14.20;99.90
9219;DHT22;4644;48.858;9.184;2023-03-19T15:03:18;14.20;99.90
9219;DHT22;4644;48.858;9.184;2023-03-19T15:05:47;14.10;99.90
9219;DHT22;4644;48.858;9.184;2023-03-19T15:08:19;14.10;99.90
9219;DHT22;4644;48.858;9.184;2023-03-19T15:10:59;14.10;99.90
9219;DHT22;4644;48.858;9.184;2023-03-19T15:13:50;14.10;99.90
9219;DHT22;4644;48.858;9.184;2023-03-19T15:16:32;14.10;99.90
9219;DHT22;4644;48.858;9.184;2023-03-19T15:19:01;13.90;99.90
9219;DHT22;4644;48.858;9.184;2023-03-19T15:21:30;13.80;99.90
9219;DHT22;4644;48.858;9.184;2023-03-19T15:23:57;13.80;99.90
9219;DHT22;4644;48.858;9.184;2023-03-19T15:26:32;13.70;99.90
9219;DHT22;4644;48.858;9.184;2023-03-19T15:29:00;13.70;99.90
9219;DHT22;4644;48.858;9.184;2023-03-19T15:31:44;13.70;99.90
9219;DHT22;4644;48.858;9.184;2023-03-19T15:34:19;13.70;99.90
9219;DHT22;4644;48.858;9.184;2023-03-19T15:36:50;13.70;99.90
9219;DHT22;4644;48.858;9.184;2023-03-19T15:39:18;13.80;99.90
9219;DHT22;4644;48.858;9.184;2023-03-19T15:41:48;13.80;99.90
9219;DHT22;4644;48.858;9.184;2023-03-19T15:44:19;14.00;99.90
9219;DHT22;4644;48.858;9.184;2023-03-19T15:46:48;13.90;99.90
9219;DHT22;4644;48.858;9.184;2023-03-19T15:49:19;13.90;99.90
9219;DHT22;4644;48.858;9.184;2023-03-19T15:51:50;14.00;99.90
9219;DHT22;4644;48.858;9.184;2023-03-19T15:54:20;13.90;99.90
9219;DHT22;4644;48.858;9.184;2023-03-19T15:56:48;13.80;99.90
9219;DHT22;4644;48.858;9.184;2023-03-19T15:59:17;13.70;99.90
9219;DHT22;4644;48.858;9.184;2023-03-19T16:01:45;13.60;99.90
9219;DHT22;4644;48.858;9.184;2023-03-19T16:04:15;13.40;99.90
9219;DHT22;4644;48.858;9.184;2023-03-19T16:06:48;13.30;99.90
9219;DHT22;4644;48.858;9.184;2023-03-19T16:09:22;13.10;99.90
9219;DHT22;4644;48.858;9.184;2023-03-19T16:11:50;13.00;99.90
9219;DHT22;4644;48.858;9.184;2023-03-19T16:14:25;12.90;99.90
9219;DHT22;4644;48.858;9.184;2023-03-19T16:16:58;12.70;99.90
9219;DHT22;4644;48.858;9.184;2023-03-19T16:19:32;12.60;99.90
9219;DHT22;4644;48.858;9.184;2023-03-19T16:22:04;12.50;99.90
9219;DHT22;4644;48.858;9.184;2023-03-19T16:24:38;12.40;99.90
9219;DHT22;4644;48.858;9.184;2023-03-19T16:27:09;12.30;99.90
9219;DHT22;4644;48.858;9.184;2023-03-19T16:29:39;12.20;99.90
9219;DHT22;4644;48.858;9.184;2023-03-19T16:32:16;12.10;99.90
9219;DHT22;4644;48.858;9.184;2023-03-19T16:34:45;12.10;99.90
9219;DHT22;4644;48.858;9.184;2023-03-19T16:37:31;12.00;99.90
9219;DHT22;4644;48.858;9.184;2023-03-19T16:40:00;12.00;99.90